sensor_id;sensor_type;location;lat;lon;timestamp;P1;durP1;ratioP1;P2;durP2;ratioP2
58083;SDS011;43882;51.550;11.858;2023-03-02T00:00:36;19.85;;;7.03;;
58083;SDS011;43882;51.550;11.858;2023-03-02T00:03:04;19.75;;;7.20;;
58083;SDS011;43882;51.550;11.858;2023-03-02T00:05:30;19.27;;;7.15;;
58083;SDS011;43882;51.550;11.858;2023-03-02T00:07:57;20.00;;;6.53;;
58083;SDS011;43882;51.550;11.858;2023-03-02T00:10:24;20.30;;;6.75;;
58083;SDS011;43882;51.550;11.858;2023-03-02T00:12:50;20.33;;;7.47;;
58083;SDS011;43882;51.550;11.858;2023-03-02T00:15:17;20.15;;;7.68;;
58083;SDS011;43882;51.550;11.858;2023-03-02T00:17:43;19.63;;;6.90;;
58083;SDS011;43882;51.550;11.858;2023-03-02T00:20:09;21.13;;;7.47;;
58083;SDS011;43882;51.550;11.858;2023-03-02T00:22:40;20.92;;;7.68;;
58083;SDS011;43882;51.550;11.858;2023-03-02T00:25:07;22.80;;;8.05;;
58083;SDS011;43882;51.550;11.858;2023-03-02T00:27:33;21.48;;;7.68;;
58083;SDS011;43882;51.550;11.858;2023-03-02T00:30:00;23.27;;;8.80;;
58083;SDS011;43882;51.550;11.858;2023-03-02T00:32:26;20.85;;;8.05;;
58083;SDS011;43882;51.550;11.858;2023-03-02T00:34:52;21.55;;;7.60;;
58083;SDS011;43882;51.550;11.858;2023-03-02T00:37:18;21.35;;;7.65;;
58083;SDS011;43882;51.550;11.858;2023-03-02T00:39:44;23.42;;;8.75;;
58083;SDS011;43882;51.550;11.858;2023-03-02T00:42:10;22.98;;;8.45;;
58083;SDS011;43882;51.550;11.858;2023-03-02T00:44:37;19.67;;;7.15;;
58083;SDS011;43882;51.550;11.858;2023-03-02T00:47:03;22.98;;;7.95;;
58083;SDS011;43882;51.550;11.858;2023-03-02T00:49:29;21.25;;;8.48;;
58083;SDS011;43882;51.550;11.858;2023-03-02T00:51:55;21.40;;;7.93;;
58083;SDS011;43882;51.550;11.858;2023-03-02T00:54:21;22.02;;;8.85;;
58083;SDS011;43882;51.550;11.858;2023-03-02T00:56:47;22.38;;;8.10;;
58083;SDS011;43882;51.550;11.858;2023-03-02T00:59:13;21.70;;;8.20;;
58083;SDS011;43882;51.550;11.858;2023-03-02T01:01:50;22.08;;;8.20;;
58083;SDS011;43882;51.550;11.858;2023-03-02T01:04:21;22.02;;;8.50;;
58083;SDS011;43882;51.550;11.858;2023-03-02T01:06:54;23.57;;;8.67;;
58083;SDS011;43882;51.550;11.858;2023-03-02T01:09:24;20.88;;;8.43;;
58083;SDS011;43882;51.550;11.858;2023-03-02T01:11:51;24.35;;;8.15;;
58083;SDS011;43882;51.550;11.858;2023-03-02T01:14:17;22.85;;;8.63;;
58083;SDS011;43882;51.550;11.858;2023-03-02T01:16:43;23.23;;;7.82;;
58083;SDS011;43882;51.550;11.858;2023-03-02T01:19:11;21.08;;;8.13;;
58083;SDS011;43882;51.550;11.858;2023-03-02T01:21:38;22.88;;;8.05;;
58083;SDS011;43882;51.550;11.858;2023-03-02T01:24:04;23.52;;;8.18;;
58083;SDS011;43882;51.550;11.858;2023-03-02T01:26:31;22.25;;;7.78;;
58083;SDS011;43882;51.550;11.858;2023-03-02T01:28:57;21.35;;;8.18;;
58083;SDS011;43882;51.550;11.858;2023-03-02T01:31:24;23.13;;;8.30;;
58083;SDS011;43882;51.550;11.858;2023-03-02T01:33:50;22.02;;;7.97;;
58083;SDS011;43882;51.550;11.858;2023-03-02T01:36:16;21.60;;;7.72;;
58083;SDS011;43882;51.550;11.858;2023-03-02T01:38:43;23.52;;;8.10;;
58083;SDS011;43882;51.550;11.858;2023-03-02T01:41:09;21.77;;;8.05;;
58083;SDS011;43882;51.550;11.858;2023-03-02T01:43:35;20.90;;;7.18;;
58083;SDS011;43882;51.550;11.858;2023-03-02T01:46:02;23.63;;;7.45;;
58083;SDS011;43882;51.550;11.858;2023-03-02T01:48:57;21.20;;;7.72;;
58083;SDS011;43882;51.550;11.858;2023-03-02T01:51:28;22.52;;;7.55;;
58083;SDS011;43882;51.550;11.858;2023-03-02T01:54:00;20.20;;;7.25;;
58083;SDS011;43882;51.550;11.858;2023-03-02T01:56:30;23.55;;;7.97;;
58083;SDS011;43882;51.550;11.858;2023-03-02T01:58:59;20.90;;;7.68;;
58083;SDS011;43882;51.550;11.858;2023-03-02T02:01:29;18.20;;;6.82;;
58083;SDS011;43882;51.550;11.858;2023-03-02T02:03:57;20.23;;;7.35;;
58083;SDS011;43882;51.550;11.858;2023-03-02T02:06:38;21.90;;;8.15;;
58083;SDS011;43882;51.550;11.858;2023-03-02T02:09:08;21.63;;;7.60;;
58083;SDS011;43882;51.550;11.858;2023-03-02T02:11:36;19.27;;;7.38;;
58083;SDS011;43882;51.550;11.858;2023-03-02T02:14:03;20.15;;;7.03;;
58083;SDS011;43882;51.550;11.858;2023-03-02T02:16:30;21.92;;;7.35;;
58083;SDS011;43882;51.550;11.858;2023-03-02T02:18:57;20.25;;;8.05;;
58083;SDS011;43882;51.550;11.858;2023-03-02T02:21:24;20.17;;;7.10;;
58083;SDS011;43882;51.550;11.858;2023-03-02T02:23:55;21.70;;;7.25;;
58083;SDS011;43882;51.550;11.858;2023-03-02T02:26:30;20.83;;;7.43;;
58083;SDS011;43882;51.550;11.858;2023-03-02T02:29:05;20.65;;;7.18;;
58083;SDS011;43882;51.550;11.858;2023-03-02T02:31:46;19.20;;;7.80;;
58083;SDS011;43882;51.550;11.858;2023-03-02T02:36:58;22.65;;;7.93;;
58083;SDS011;43882;51.550;11.858;2023-03-02T02:39:46;21.52;;;7.45;;
58083;SDS011;43882;51.550;11.858;2023-03-02T02:42:34;22.10;;;7.35;;
58083;SDS011;43882;51.550;11.858;2023-03-02T02:45:04;20.83;;;7.18;;
58083;SDS011;43882;51.550;11.858;2023-03-02T02:47:32;20.90;;;6.97;;
58083;SDS011;43882;51.550;11.858;2023-03-02T02:49:58;20.92;;;7.05;;
58083;SDS011;43882;51.550;11.858;2023-03-02T02:52:25;23.27;;;7.65;;
58083;SDS011;43882;51.550;11.858;2023-03-02T02:54:53;21.45;;;7.50;;
58083;SDS011;43882;51.550;11.858;2023-03-02T02:57:21;23.45;;;7.40;;
58083;SDS011;43882;51.550;11.858;2023-03-02T02:59:58;21.38;;;7.80;;
58083;SDS011;43882;51.550;11.858;2023-03-02T03:02:26;22.88;;;8.18;;
58083;SDS011;43882;51.550;11.858;2023-03-02T03:04:53;21.98;;;7.85;;
58083;SDS011;43882;51.550;11.858;2023-03-02T03:07:37;20.70;;;8.07;;
58083;SDS011;43882;51.550;11.858;2023-03-02T03:12:29;22.33;;;8.60;;
58083;SDS011;43882;51.550;11.858;2023-03-02T03:14:57;22.15;;;7.43;;
58083;SDS011;43882;51.550;11.858;2023-03-02T03:17:24;22.38;;;8.45;;
58083;SDS011;43882;51.550;11.858;2023-03-02T03:19:50;24.80;;;9.18;;
58083;SDS011;43882;51.550;11.858;2023-03-02T03:22:16;23.80;;;8.63;;
58083;SDS011;43882;51.550;11.858;2023-03-02T03:24:43;22.38;;;8.68;;
58083;SDS011;43882;51.550;11.858;2023-03-02T03:27:10;24.00;;;8.23;;
58083;SDS011;43882;51.550;11.858;2023-03-02T03:29:39;24.05;;;8.70;;
58083;SDS011;43882;51.550;11.858;2023-03-02T03:32:07;24.25;;;8.70;;
58083;SDS011;43882;51.550;11.858;2023-03-02T03:34:34;21.92;;;8.85;;
58083;SDS011;43882;51.550;11.858;2023-03-02T03:37:10;20.70;;;8.35;;
58083;SDS011;43882;51.550;11.858;2023-03-02T03:39:39;25.23;;;8.90;;
58083;SDS011;43882;51.550;11.858;2023-03-02T03:42:05;22.55;;;7.97;;
58083;SDS011;43882;51.550;11.858;2023-03-02T03:44:31;21.60;;;8.55;;
58083;SDS011;43882;51.550;11.858;2023-03-02T03:46:57;20.55;;;8.18;;
58083;SDS011;43882;51.550;11.858;2023-03-02T03:49:24;24.35;;;9.35;;
58083;SDS011;43882;51.550;11.858;2023-03-02T03:51:50;24.95;;;7.88;;
58083;SDS011;43882;51.550;11.858;2023-03-02T03:54:16;20.30;;;8.25;;
58083;SDS011;43882;51.550;11.858;2023-03-02T03:56:44;22.58;;;8.20;;
58083;SDS011;43882;51.550;11.858;2023-03-02T03:59:13;23.13;;;8.45;;
58083;SDS011;43882;51.550;11.858;2023-03-02T04:01:43;23.10;;;8.38;;
58083;SDS011;43882;51.550;11.858;2023-03-02T04:04:13;24.17;;;9.00;;
58083;SDS011;43882;51.550;11.858;2023-03-02T04:06:41;26.23;;;8.68;;
58083;SDS011;43882;51.550;11.858;2023-03-02T04:09:08;23.70;;;7.97;;
58083;SDS011;43882;51.550;11.858;2023-03-02T04:11:38;23.48;;;8.18;;
58083;SDS011;43882;51.550;11.858;2023-03-02T04:14:05;22.42;;;8.13;;
58083;SDS011;43882;51.550;11.858;2023-03-02T04:16:32;24.48;;;8.30;;
58083;SDS011;43882;51.550;11.858;2023-03-02T04:18:58;23.70;;;8.60;;
58083;SDS011;43882;51.550;11.858;2023-03-02T04:21:24;22.52;;;8.10;;
58083;SDS011;43882;51.550;11.858;2023-03-02T04:23:51;21.38;;;8.13;;
58083;SDS011;43882;51.550;11.858;2023-03-02T04:26:17;20.23;;;7.90;;
58083;SDS011;43882;51.550;11.858;2023-03-02T04:28:43;24.27;;;9.00;;
58083;SDS011;43882;51.550;11.858;2023-03-02T04:31:09;22.45;;;8.20;;
58083;SDS011;43882;51.550;11.858;2023-03-02T04:33:35;21.70;;;8.75;;
58083;SDS011;43882;51.550;11.858;2023-03-02T04:36:03;23.05;;;8.65;;
58083;SDS011;43882;51.550;11.858;2023-03-02T04:38:29;22.45;;;8.00;;
58083;SDS011;43882;51.550;11.858;2023-03-02T04:40:56;20.83;;;7.63;;
58083;SDS011;43882;51.550;11.858;2023-03-02T04:43:22;21.13;;;8.63;;
58083;SDS011;43882;51.550;11.858;2023-03-02T04:45:49;23.70;;;8.68;;
58083;SDS011;43882;51.550;11.858;2023-03-02T04:48:16;20.98;;;7.88;;
58083;SDS011;43882;51.550;11.858;2023-03-02T04:50:42;23.25;;;8.50;;
58083;SDS011;43882;51.550;11.858;2023-03-02T04:53:08;22.98;;;7.82;;
58083;SDS011;43882;51.550;11.858;2023-03-02T04:55:36;22.33;;;8.10;;
58083;SDS011;43882;51.550;11.858;2023-03-02T04:58:02;22.13;;;8.27;;
58083;SDS011;43882;51.550;11.858;2023-03-02T05:00:28;22.60;;;9.32;;
58083;SDS011;43882;51.550;11.858;2023-03-02T05:02:58;20.85;;;8.10;;
58083;SDS011;43882;51.550;11.858;2023-03-02T05:05:24;23.65;;;8.48;;
58083;SDS011;43882;51.550;11.858;2023-03-02T05:07:50;20.88;;;8.05;;
58083;SDS011;43882;51.550;11.858;2023-03-02T05:10:17;21.90;;;9.15;;
58083;SDS011;43882;51.550;11.858;2023-03-02T05:12:44;23.45;;;9.43;;
58083;SDS011;43882;51.550;11.858;2023-03-02T05:15:23;23.65;;;9.15;;
58083;SDS011;43882;51.550;11.858;2023-03-02T05:17:50;22.33;;;8.93;;
58083;SDS011;43882;51.550;11.858;2023-03-02T05:20:17;24.40;;;8.60;;
58083;SDS011;43882;51.550;11.858;2023-03-02T05:22:44;23.42;;;9.25;;
58083;SDS011;43882;51.550;11.858;2023-03-02T05:25:10;22.90;;;9.20;;
58083;SDS011;43882;51.550;11.858;2023-03-02T05:27:37;21.30;;;8.55;;
58083;SDS011;43882;51.550;11.858;2023-03-02T05:30:03;26.35;;;9.88;;
58083;SDS011;43882;51.550;11.858;2023-03-02T05:32:30;24.10;;;9.30;;
58083;SDS011;43882;51.550;11.858;2023-03-02T05:34:56;25.33;;;10.55;;
58083;SDS011;43882;51.550;11.858;2023-03-02T05:37:22;23.02;;;9.15;;
58083;SDS011;43882;51.550;11.858;2023-03-02T05:39:48;22.77;;;9.77;;
58083;SDS011;43882;51.550;11.858;2023-03-02T05:42:14;23.77;;;8.73;;
58083;SDS011;43882;51.550;11.858;2023-03-02T05:44:41;25.00;;;8.70;;
58083;SDS011;43882;51.550;11.858;2023-03-02T05:47:07;24.20;;;9.80;;
58083;SDS011;43882;51.550;11.858;2023-03-02T05:49:33;23.55;;;9.15;;
58083;SDS011;43882;51.550;11.858;2023-03-02T05:51:59;23.70;;;9.77;;
58083;SDS011;43882;51.550;11.858;2023-03-02T05:54:25;24.80;;;9.32;;
58083;SDS011;43882;51.550;11.858;2023-03-02T05:56:51;23.95;;;9.27;;
58083;SDS011;43882;51.550;11.858;2023-03-02T05:59:17;26.42;;;9.85;;
58083;SDS011;43882;51.550;11.858;2023-03-02T06:01:43;26.00;;;10.15;;
58083;SDS011;43882;51.550;11.858;2023-03-02T06:04:09;25.92;;;9.10;;
58083;SDS011;43882;51.550;11.858;2023-03-02T06:06:35;25.60;;;10.23;;
58083;SDS011;43882;51.550;11.858;2023-03-02T06:09:01;27.33;;;9.55;;
58083;SDS011;43882;51.550;11.858;2023-03-02T06:11:27;27.20;;;10.15;;
58083;SDS011;43882;51.550;11.858;2023-03-02T06:13:54;27.33;;;10.52;;
58083;SDS011;43882;51.550;11.858;2023-03-02T06:16:20;23.42;;;9.18;;
58083;SDS011;43882;51.550;11.858;2023-03-02T06:18:46;24.23;;;9.52;;
58083;SDS011;43882;51.550;11.858;2023-03-02T06:21:12;22.23;;;9.90;;
58083;SDS011;43882;51.550;11.858;2023-03-02T06:23:38;23.45;;;8.88;;
58083;SDS011;43882;51.550;11.858;2023-03-02T06:26:09;24.67;;;9.80;;
58083;SDS011;43882;51.550;11.858;2023-03-02T06:28:35;24.88;;;8.95;;
58083;SDS011;43882;51.550;11.858;2023-03-02T06:31:02;28.00;;;10.60;;
58083;SDS011;43882;51.550;11.858;2023-03-02T06:33:28;22.90;;;9.35;;
58083;SDS011;43882;51.550;11.858;2023-03-02T06:35:54;23.45;;;10.02;;
58083;SDS011;43882;51.550;11.858;2023-03-02T06:38:21;22.70;;;9.38;;
58083;SDS011;43882;51.550;11.858;2023-03-02T06:40:47;25.58;;;10.18;;
58083;SDS011;43882;51.550;11.858;2023-03-02T06:43:13;24.70;;;9.93;;
58083;SDS011;43882;51.550;11.858;2023-03-02T06:45:39;26.90;;;10.43;;
58083;SDS011;43882;51.550;11.858;2023-03-02T06:48:06;27.70;;;11.55;;
58083;SDS011;43882;51.550;11.858;2023-03-02T06:50:32;25.25;;;11.27;;
58083;SDS011;43882;51.550;11.858;2023-03-02T06:52:58;25.58;;;10.40;;
58083;SDS011;43882;51.550;11.858;2023-03-02T06:55:25;30.35;;;11.90;;
58083;SDS011;43882;51.550;11.858;2023-03-02T06:57:51;30.58;;;13.25;;
58083;SDS011;43882;51.550;11.858;2023-03-02T07:00:17;29.02;;;13.38;;
58083;SDS011;43882;51.550;11.858;2023-03-02T07:02:50;33.03;;;16.02;;
58083;SDS011;43882;51.550;11.858;2023-03-02T07:05:16;30.67;;;13.80;;
58083;SDS011;43882;51.550;11.858;2023-03-02T07:07:43;27.40;;;11.52;;
58083;SDS011;43882;51.550;11.858;2023-03-02T07:10:09;24.92;;;11.30;;
58083;SDS011;43882;51.550;11.858;2023-03-02T07:12:37;24.02;;;10.98;;
58083;SDS011;43882;51.550;11.858;2023-03-02T07:15:04;25.05;;;10.90;;
58083;SDS011;43882;51.550;11.858;2023-03-02T07:17:35;25.17;;;10.45;;
58083;SDS011;43882;51.550;11.858;2023-03-02T07:20:02;25.85;;;11.00;;
58083;SDS011;43882;51.550;11.858;2023-03-02T07:22:30;25.45;;;11.15;;
58083;SDS011;43882;51.550;11.858;2023-03-02T07:24:56;24.65;;;11.40;;
58083;SDS011;43882;51.550;11.858;2023-03-02T07:27:22;26.63;;;11.63;;
58083;SDS011;43882;51.550;11.858;2023-03-02T07:29:48;24.98;;;10.88;;
58083;SDS011;43882;51.550;11.858;2023-03-02T07:32:14;27.15;;;11.18;;
58083;SDS011;43882;51.550;11.858;2023-03-02T07:34:40;28.70;;;11.48;;
58083;SDS011;43882;51.550;11.858;2023-03-02T07:37:06;24.75;;;11.15;;
58083;SDS011;43882;51.550;11.858;2023-03-02T07:39:32;26.80;;;11.82;;
58083;SDS011;43882;51.550;11.858;2023-03-02T07:41:59;25.13;;;10.30;;
58083;SDS011;43882;51.550;11.858;2023-03-02T07:44:26;26.52;;;11.35;;
58083;SDS011;43882;51.550;11.858;2023-03-02T07:46:53;26.77;;;10.43;;
58083;SDS011;43882;51.550;11.858;2023-03-02T07:49:19;23.35;;;9.20;;
58083;SDS011;43882;51.550;11.858;2023-03-02T07:51:45;23.92;;;10.45;;
58083;SDS011;43882;51.550;11.858;2023-03-02T07:54:11;23.15;;;10.30;;
58083;SDS011;43882;51.550;11.858;2023-03-02T07:56:37;26.67;;;10.32;;
58083;SDS011;43882;51.550;11.858;2023-03-02T07:59:03;22.48;;;9.60;;
58083;SDS011;43882;51.550;11.858;2023-03-02T08:01:29;26.65;;;9.40;;
58083;SDS011;43882;51.550;11.858;2023-03-02T08:03:55;22.70;;;9.32;;
58083;SDS011;43882;51.550;11.858;2023-03-02T08:06:21;24.67;;;9.63;;
58083;SDS011;43882;51.550;11.858;2023-03-02T08:08:47;23.30;;;9.23;;
58083;SDS011;43882;51.550;11.858;2023-03-02T08:11:14;24.60;;;8.93;;
58083;SDS011;43882;51.550;11.858;2023-03-02T08:13:41;22.48;;;9.43;;
58083;SDS011;43882;51.550;11.858;2023-03-02T08:16:09;20.38;;;8.95;;
58083;SDS011;43882;51.550;11.858;2023-03-02T08:18:36;22.65;;;9.02;;
58083;SDS011;43882;51.550;11.858;2023-03-02T08:21:03;23.35;;;9.07;;
58083;SDS011;43882;51.550;11.858;2023-03-02T08:23:39;22.70;;;8.90;;
58083;SDS011;43882;51.550;11.858;2023-03-02T08:26:05;23.42;;;8.60;;
58083;SDS011;43882;51.550;11.858;2023-03-02T08:28:32;23.23;;;8.88;;
58083;SDS011;43882;51.550;11.858;2023-03-02T08:30:58;22.25;;;9.05;;
58083;SDS011;43882;51.550;11.858;2023-03-02T08:33:25;21.50;;;8.43;;
58083;SDS011;43882;51.550;11.858;2023-03-02T08:35:59;21.42;;;8.68;;
58083;SDS011;43882;51.550;11.858;2023-03-02T08:38:30;20.90;;;8.73;;
58083;SDS011;43882;51.550;11.858;2023-03-02T08:40:56;24.35;;;8.98;;
58083;SDS011;43882;51.550;11.858;2023-03-02T08:43:23;20.60;;;7.82;;
58083;SDS011;43882;51.550;11.858;2023-03-02T08:45:53;21.40;;;8.57;;
58083;SDS011;43882;51.550;11.858;2023-03-02T08:48:21;22.30;;;8.23;;
58083;SDS011;43882;51.550;11.858;2023-03-02T08:50:54;22.30;;;8.30;;
58083;SDS011;43882;51.550;11.858;2023-03-02T08:53:29;22.90;;;9.15;;
58083;SDS011;43882;51.550;11.858;2023-03-02T08:55:56;20.13;;;8.60;;
58083;SDS011;43882;51.550;11.858;2023-03-02T08:58:23;21.65;;;8.85;;
58083;SDS011;43882;51.550;11.858;2023-03-02T09:00:49;23.05;;;8.68;;
58083;SDS011;43882;51.550;11.858;2023-03-02T09:03:15;22.17;;;9.25;;
58083;SDS011;43882;51.550;11.858;2023-03-02T09:05:41;21.10;;;8.32;;
58083;SDS011;43882;51.550;11.858;2023-03-02T09:08:08;24.23;;;8.57;;
58083;SDS011;43882;51.550;11.858;2023-03-02T09:10:34;22.77;;;9.07;;
58083;SDS011;43882;51.550;11.858;2023-03-02T09:13:00;22.33;;;9.15;;
58083;SDS011;43882;51.550;11.858;2023-03-02T09:15:27;23.20;;;9.52;;
58083;SDS011;43882;51.550;11.858;2023-03-02T09:17:53;22.25;;;9.15;;
58083;SDS011;43882;51.550;11.858;2023-03-02T09:20:19;21.67;;;9.65;;
58083;SDS011;43882;51.550;11.858;2023-03-02T09:22:45;22.92;;;9.48;;
58083;SDS011;43882;51.550;11.858;2023-03-02T09:25:15;21.38;;;9.65;;
58083;SDS011;43882;51.550;11.858;2023-03-02T09:27:42;23.52;;;9.68;;
58083;SDS011;43882;51.550;11.858;2023-03-02T09:30:10;22.27;;;9.48;;
58083;SDS011;43882;51.550;11.858;2023-03-02T09:32:36;22.77;;;9.50;;
58083;SDS011;43882;51.550;11.858;2023-03-02T09:35:02;23.23;;;9.25;;
58083;SDS011;43882;51.550;11.858;2023-03-02T09:37:29;24.33;;;9.25;;
58083;SDS011;43882;51.550;11.858;2023-03-02T09:39:55;22.13;;;9.63;;
58083;SDS011;43882;51.550;11.858;2023-03-02T09:42:28;24.58;;;10.45;;
58083;SDS011;43882;51.550;11.858;2023-03-02T09:45:33;22.15;;;9.10;;
58083;SDS011;43882;51.550;11.858;2023-03-02T09:51:00;23.63;;;9.98;;
58083;SDS011;43882;51.550;11.858;2023-03-02T09:56:06;22.73;;;9.30;;
58083;SDS011;43882;51.550;11.858;2023-03-02T09:58:40;22.92;;;10.00;;
58083;SDS011;43882;51.550;11.858;2023-03-02T10:01:14;22.85;;;9.60;;
58083;SDS011;43882;51.550;11.858;2023-03-02T10:03:47;23.52;;;9.70;;
58083;SDS011;43882;51.550;11.858;2023-03-02T10:06:17;27.00;;;10.02;;
58083;SDS011;43882;51.550;11.858;2023-03-02T10:08:43;24.52;;;10.27;;
58083;SDS011;43882;51.550;11.858;2023-03-02T10:11:14;25.42;;;10.10;;
58083;SDS011;43882;51.550;11.858;2023-03-02T10:14:07;22.90;;;9.98;;
58083;SDS011;43882;51.550;11.858;2023-03-02T10:16:48;26.05;;;10.48;;
58083;SDS011;43882;51.550;11.858;2023-03-02T10:22:09;23.52;;;9.95;;
58083;SDS011;43882;51.550;11.858;2023-03-02T10:24:50;24.88;;;10.20;;
58083;SDS011;43882;51.550;11.858;2023-03-02T10:27:33;22.17;;;9.65;;
58083;SDS011;43882;51.550;11.858;2023-03-02T10:32:57;22.73;;;9.85;;
58083;SDS011;43882;51.550;11.858;2023-03-02T10:35:26;22.63;;;9.20;;
58083;SDS011;43882;51.550;11.858;2023-03-02T10:37:58;23.13;;;10.07;;
58083;SDS011;43882;51.550;11.858;2023-03-02T10:40:42;23.33;;;9.48;;
58083;SDS011;43882;51.550;11.858;2023-03-02T10:43:16;29.15;;;10.73;;
58083;SDS011;43882;51.550;11.858;2023-03-02T10:45:57;25.20;;;10.65;;
58083;SDS011;43882;51.550;11.858;2023-03-02T10:48:31;23.08;;;9.98;;
58083;SDS011;43882;51.550;11.858;2023-03-02T10:51:02;23.73;;;10.98;;
58083;SDS011;43882;51.550;11.858;2023-03-02T10:53:29;24.60;;;11.25;;
58083;SDS011;43882;51.550;11.858;2023-03-02T10:55:55;22.90;;;10.50;;
58083;SDS011;43882;51.550;11.858;2023-03-02T10:58:28;24.15;;;10.13;;
58083;SDS011;43882;51.550;11.858;2023-03-02T11:00:58;26.88;;;10.57;;
58083;SDS011;43882;51.550;11.858;2023-03-02T11:03:26;24.27;;;10.75;;
58083;SDS011;43882;51.550;11.858;2023-03-02T11:05:53;24.20;;;9.82;;
58083;SDS011;43882;51.550;11.858;2023-03-02T11:08:20;27.35;;;12.63;;
58083;SDS011;43882;51.550;11.858;2023-03-02T11:10:58;23.35;;;10.40;;
58083;SDS011;43882;51.550;11.858;2023-03-02T11:13:26;23.80;;;10.90;;
58083;SDS011;43882;51.550;11.858;2023-03-02T11:15:58;23.02;;;10.57;;
58083;SDS011;43882;51.550;11.858;2023-03-02T11:18:41;22.25;;;10.77;;
58083;SDS011;43882;51.550;11.858;2023-03-02T11:21:39;25.27;;;11.25;;
58083;SDS011;43882;51.550;11.858;2023-03-02T11:24:15;24.77;;;11.20;;
58083;SDS011;43882;51.550;11.858;2023-03-02T11:26:44;27.65;;;11.52;;
58083;SDS011;43882;51.550;11.858;2023-03-02T11:31:55;23.88;;;10.10;;
58083;SDS011;43882;51.550;11.858;2023-03-02T11:37:24;26.60;;;11.13;;
58083;SDS011;43882;51.550;11.858;2023-03-02T11:42:50;25.30;;;11.57;;
58083;SDS011;43882;51.550;11.858;2023-03-02T11:48:23;27.20;;;10.65;;
58083;SDS011;43882;51.550;11.858;2023-03-02T11:50:55;25.15;;;10.50;;
58083;SDS011;43882;51.550;11.858;2023-03-02T11:53:28;22.98;;;10.75;;
58083;SDS011;43882;51.550;11.858;2023-03-02T11:56:03;25.38;;;11.35;;
58083;SDS011;43882;51.550;11.858;2023-03-02T11:58:29;25.15;;;11.02;;
58083;SDS011;43882;51.550;11.858;2023-03-02T12:00:56;26.20;;;11.02;;
58083;SDS011;43882;51.550;11.858;2023-03-02T12:03:35;23.70;;;10.38;;
58083;SDS011;43882;51.550;11.858;2023-03-02T12:08:35;26.50;;;11.45;;
58083;SDS011;43882;51.550;11.858;2023-03-02T12:11:07;24.92;;;10.75;;
58083;SDS011;43882;51.550;11.858;2023-03-02T12:13:58;26.00;;;11.18;;
58083;SDS011;43882;51.550;11.858;2023-03-02T12:16:39;24.20;;;10.38;;
58083;SDS011;43882;51.550;11.858;2023-03-02T12:21:42;26.30;;;11.38;;
58083;SDS011;43882;51.550;11.858;2023-03-02T12:24:23;24.50;;;11.23;;
58083;SDS011;43882;51.550;11.858;2023-03-02T12:27:04;25.35;;;12.68;;
58083;SDS011;43882;51.550;11.858;2023-03-02T12:32:25;26.73;;;12.48;;
58083;SDS011;43882;51.550;11.858;2023-03-02T12:34:58;26.40;;;12.48;;
58083;SDS011;43882;51.550;11.858;2023-03-02T12:37:32;26.33;;;12.70;;
58083;SDS011;43882;51.550;11.858;2023-03-02T12:40:26;27.05;;;12.77;;
58083;SDS011;43882;51.550;11.858;2023-03-02T12:48:02;26.52;;;12.38;;
58083;SDS011;43882;51.550;11.858;2023-03-02T12:50:37;27.77;;;12.70;;
58083;SDS011;43882;51.550;11.858;2023-03-02T12:53:05;28.08;;;13.15;;
58083;SDS011;43882;51.550;11.858;2023-03-02T12:55:40;27.58;;;13.23;;
58083;SDS011;43882;51.550;11.858;2023-03-02T12:58:11;28.25;;;12.68;;
58083;SDS011;43882;51.550;11.858;2023-03-02T13:00:47;29.10;;;12.93;;
58083;SDS011;43882;51.550;11.858;2023-03-02T13:03:14;25.60;;;12.30;;
58083;SDS011;43882;51.550;11.858;2023-03-02T13:05:41;29.50;;;13.88;;
58083;SDS011;43882;51.550;11.858;2023-03-02T13:08:07;27.40;;;12.73;;
58083;SDS011;43882;51.550;11.858;2023-03-02T13:10:43;30.17;;;13.95;;
58083;SDS011;43882;51.550;11.858;2023-03-02T13:13:20;26.88;;;12.20;;
58083;SDS011;43882;51.550;11.858;2023-03-02T13:15:53;30.23;;;14.57;;
58083;SDS011;43882;51.550;11.858;2023-03-02T13:18:22;28.80;;;14.40;;
58083;SDS011;43882;51.550;11.858;2023-03-02T13:20:50;32.50;;;15.93;;
58083;SDS011;43882;51.550;11.858;2023-03-02T13:23:17;28.83;;;13.90;;
58083;SDS011;43882;51.550;11.858;2023-03-02T13:25:50;31.45;;;15.73;;
58083;SDS011;43882;51.550;11.858;2023-03-02T13:28:25;31.27;;;14.38;;
58083;SDS011;43882;51.550;11.858;2023-03-02T13:31:35;36.35;;;16.88;;
58083;SDS011;43882;51.550;11.858;2023-03-02T13:33:46;36.47;;;16.17;;
58083;SDS011;43882;51.550;11.858;2023-03-02T13:36:18;32.08;;;16.15;;
58083;SDS011;43882;51.550;11.858;2023-03-02T13:38:46;33.42;;;15.32;;
58083;SDS011;43882;51.550;11.858;2023-03-02T13:41:24;33.33;;;16.30;;
58083;SDS011;43882;51.550;11.858;2023-03-02T13:43:52;35.75;;;16.52;;
58083;SDS011;43882;51.550;11.858;2023-03-02T13:52:03;35.13;;;18.05;;
58083;SDS011;43882;51.550;11.858;2023-03-02T13:54:45;35.00;;;17.20;;
58083;SDS011;43882;51.550;11.858;2023-03-02T13:57:24;39.13;;;19.60;;
58083;SDS011;43882;51.550;11.858;2023-03-02T13:59:53;36.30;;;17.73;;
58083;SDS011;43882;51.550;11.858;2023-03-02T14:02:23;35.83;;;17.60;;
58083;SDS011;43882;51.550;11.858;2023-03-02T14:04:51;37.13;;;18.02;;
58083;SDS011;43882;51.550;11.858;2023-03-02T14:07:17;37.75;;;18.00;;
58083;SDS011;43882;51.550;11.858;2023-03-02T14:09:44;40.97;;;19.63;;
58083;SDS011;43882;51.550;11.858;2023-03-02T14:12:24;39.50;;;18.20;;
58083;SDS011;43882;51.550;11.858;2023-03-02T14:14:53;41.08;;;20.38;;
58083;SDS011;43882;51.550;11.858;2023-03-02T14:17:22;40.38;;;17.98;;
58083;SDS011;43882;51.550;11.858;2023-03-02T14:19:48;41.03;;;19.95;;
58083;SDS011;43882;51.550;11.858;2023-03-02T14:22:26;38.92;;;18.35;;
58083;SDS011;43882;51.550;11.858;2023-03-02T14:24:54;40.00;;;19.73;;
58083;SDS011;43882;51.550;11.858;2023-03-02T14:27:20;37.33;;;17.45;;
58083;SDS011;43882;51.550;11.858;2023-03-02T14:29:47;40.42;;;19.70;;
58083;SDS011;43882;51.550;11.858;2023-03-02T14:32:13;36.67;;;18.52;;
58083;SDS011;43882;51.550;11.858;2023-03-02T14:34:40;38.60;;;18.70;;
58083;SDS011;43882;51.550;11.858;2023-03-02T14:37:10;39.63;;;18.88;;
58083;SDS011;43882;51.550;11.858;2023-03-02T14:39:40;40.20;;;18.75;;
58083;SDS011;43882;51.550;11.858;2023-03-02T14:42:11;42.03;;;19.25;;
58083;SDS011;43882;51.550;11.858;2023-03-02T14:44:39;42.40;;;20.73;;
58083;SDS011;43882;51.550;11.858;2023-03-02T14:47:05;43.58;;;19.23;;
58083;SDS011;43882;51.550;11.858;2023-03-02T14:49:33;39.88;;;19.73;;
58083;SDS011;43882;51.550;11.858;2023-03-02T14:52:05;42.13;;;20.33;;
58083;SDS011;43882;51.550;11.858;2023-03-02T14:54:47;45.90;;;19.83;;
58083;SDS011;43882;51.550;11.858;2023-03-02T14:57:22;39.72;;;19.52;;
58083;SDS011;43882;51.550;11.858;2023-03-02T14:59:49;39.72;;;19.95;;
58083;SDS011;43882;51.550;11.858;2023-03-02T15:02:16;43.72;;;20.85;;
58083;SDS011;43882;51.550;11.858;2023-03-02T15:04:43;42.47;;;20.55;;
58083;SDS011;43882;51.550;11.858;2023-03-02T15:07:13;48.55;;;21.48;;
58083;SDS011;43882;51.550;11.858;2023-03-02T15:09:42;42.75;;;21.88;;
58083;SDS011;43882;51.550;11.858;2023-03-02T15:12:08;44.00;;;22.27;;
58083;SDS011;43882;51.550;11.858;2023-03-02T15:14:35;41.53;;;19.45;;